sensor_id;sensor_type;location;lat;lon;timestamp;P1;durP1;ratioP1;P2;durP2;ratioP2
43527;SDS011;52359;42.658;23.320;2023-06-22T06:41:19;21.63;;;13.38;;
43527;SDS011;52359;42.658;23.320;2023-06-22T06:43:46;19.40;;;12.27;;
43527;SDS011;52359;42.658;23.320;2023-06-22T06:46:11;15.23;;;11.80;;
43527;SDS011;52359;42.658;23.320;2023-06-22T06:48:37;28.83;;;12.52;;
43527;SDS011;52359;42.658;23.320;2023-06-22T06:51:03;25.90;;;13.52;;
43527;SDS011;52359;42.658;23.320;2023-06-22T06:53:28;28.55;;;12.75;;
43527;SDS011;52359;42.658;23.320;2023-06-22T06:55:54;24.80;;;13.90;;
43527;SDS011;52359;42.658;23.320;2023-06-22T06:58:20;26.90;;;13.02;;
43527;SDS011;52359;42.658;23.320;2023-06-22T07:00:47;21.50;;;12.88;;
43527;SDS011;52359;42.658;23.320;2023-06-22T07:03:13;23.08;;;11.57;;
43527;SDS011;52359;42.658;23.320;2023-06-22T07:05:39;26.15;;;11.30;;
43527;SDS011;52359;42.658;23.320;2023-06-22T07:08:05;25.27;;;13.10;;
43527;SDS011;52359;42.658;23.320;2023-06-22T07:10:30;18.73;;;12.82;;
43527;SDS011;52359;42.658;23.320;2023-06-22T07:12:56;21.40;;;12.45;;
43527;SDS011;52359;42.658;23.320;2023-06-22T07:15:22;18.75;;;11.48;;
43527;SDS011;52359;42.658;23.320;2023-06-22T07:17:48;20.55;;;11.45;;
43527;SDS011;52359;42.658;23.320;2023-06-22T07:20:13;20.02;;;11.75;;
43527;SDS011;52359;42.658;23.320;2023-06-22T07:22:39;24.30;;;11.40;;
43527;SDS011;52359;42.658;23.320;2023-06-22T07:25:12;21.27;;;11.43;;
43527;SDS011;52359;42.658;23.320;2023-06-22T07:27:46;20.77;;;10.98;;
43527;SDS011;52359;42.658;23.320;2023-06-22T07:30:22;23.98;;;11.82;;
43527;SDS011;52359;42.658;23.320;2023-06-22T07:32:48;20.17;;;12.38;;
43527;SDS011;52359;42.658;23.320;2023-06-22T07:35:13;15.63;;;11.27;;
43527;SDS011;52359;42.658;23.320;2023-06-22T07:37:41;17.52;;;10.35;;
43527;SDS011;52359;42.658;23.320;2023-06-22T07:40:07;18.77;;;10.80;;
43527;SDS011;52359;42.658;23.320;2023-06-22T07:42:33;21.05;;;12.00;;
43527;SDS011;52359;42.658;23.320;2023-06-22T07:44:59;15.27;;;11.05;;
43527;SDS011;52359;42.658;23.320;2023-06-22T07:47:25;16.90;;;10.35;;
43527;SDS011;52359;42.658;23.320;2023-06-22T07:49:53;19.00;;;11.10;;
43527;SDS011;52359;42.658;23.320;2023-06-22T07:52:19;20.70;;;11.18;;
43527;SDS011;52359;42.658;23.320;2023-06-22T07:54:46;21.70;;;11.38;;
43527;SDS011;52359;42.658;23.320;2023-06-22T07:57:12;17.83;;;10.95;;
43527;SDS011;52359;42.658;23.320;2023-06-22T07:59:38;17.80;;;9.85;;
43527;SDS011;52359;42.658;23.320;2023-06-22T08:02:04;24.50;;;10.95;;
43527;SDS011;52359;42.658;23.320;2023-06-22T08:04:30;14.85;;;9.88;;
43527;SDS011;52359;42.658;23.320;2023-06-22T08:06:59;13.73;;;10.50;;
43527;SDS011;52359;42.658;23.320;2023-06-22T08:09:25;24.33;;;11.77;;
43527;SDS011;52359;42.658;23.320;2023-06-22T08:11:51;20.88;;;12.00;;
43527;SDS011;52359;42.658;23.320;2023-06-22T08:14:17;19.30;;;10.45;;
43527;SDS011;52359;42.658;23.320;2023-06-22T08:16:43;25.10;;;10.93;;
43527;SDS011;52359;42.658;23.320;2023-06-22T08:19:09;19.67;;;10.30;;
43527;SDS011;52359;42.658;23.320;2023-06-22T08:21:35;22.75;;;12.10;;
43527;SDS011;52359;42.658;23.320;2023-06-22T08:24:01;16.73;;;9.60;;
43527;SDS011;52359;42.658;23.320;2023-06-22T08:26:27;25.85;;;10.90;;
43527;SDS011;52359;42.658;23.320;2023-06-22T08:28:53;17.20;;;10.85;;
43527;SDS011;52359;42.658;23.320;2023-06-22T08:31:19;14.57;;;10.05;;
43527;SDS011;52359;42.658;23.320;2023-06-22T08:33:45;17.95;;;10.50;;
43527;SDS011;52359;42.658;23.320;2023-06-22T08:36:11;17.63;;;10.43;;
43527;SDS011;52359;42.658;23.320;2023-06-22T08:38:38;12.68;;;10.57;;
43527;SDS011;52359;42.658;23.320;2023-06-22T08:41:04;20.45;;;11.20;;
43527;SDS011;52359;42.658;23.320;2023-06-22T08:43:30;13.55;;;9.90;;
43527;SDS011;52359;42.658;23.320;2023-06-22T08:45:56;13.00;;;10.18;;
43527;SDS011;52359;42.658;23.320;2023-06-22T08:48:22;14.15;;;9.70;;
43527;SDS011;52359;42.658;23.320;2023-06-22T08:50:48;15.00;;;10.57;;
43527;SDS011;52359;42.658;23.320;2023-06-22T08:53:14;38.50;;;8.70;;
43527;SDS011;52359;42.658;23.320;2023-06-22T08:55:40;11.57;;;7.47;;
43527;SDS011;52359;42.658;23.320;2023-06-22T08:58:08;14.93;;;7.78;;
43527;SDS011;52359;42.658;23.320;2023-06-22T09:00:34;10.25;;;8.00;;
43527;SDS011;52359;42.658;23.320;2023-06-22T09:03:00;23.25;;;8.68;;
43527;SDS011;52359;42.658;23.320;2023-06-22T09:05:26;22.52;;;8.95;;
43527;SDS011;52359;42.658;23.320;2023-06-22T09:07:52;18.58;;;8.02;;
43527;SDS011;52359;42.658;23.320;2023-06-22T09:10:20;14.80;;;8.75;;
43527;SDS011;52359;42.658;23.320;2023-06-22T09:12:46;9.65;;;8.50;;
43527;SDS011;52359;42.658;23.320;2023-06-22T09:15:12;9.48;;;8.55;;
43527;SDS011;52359;42.658;23.320;2023-06-22T09:17:37;12.85;;;8.50;;
43527;SDS011;52359;42.658;23.320;2023-06-22T09:20:03;15.20;;;8.25;;
43527;SDS011;52359;42.658;23.320;2023-06-22T09:22:31;12.60;;;8.65;;
43527;SDS011;52359;42.658;23.320;2023-06-22T09:24:57;12.35;;;8.23;;
43527;SDS011;52359;42.658;23.320;2023-06-22T09:27:24;9.23;;;8.32;;
43527;SDS011;52359;42.658;23.320;2023-06-22T09:29:50;10.55;;;8.88;;
43527;SDS011;52359;42.658;23.320;2023-06-22T09:32:16;10.95;;;8.90;;
43527;SDS011;52359;42.658;23.320;2023-06-22T09:34:41;9.90;;;8.50;;
43527;SDS011;52359;42.658;23.320;2023-06-22T09:37:07;9.30;;;8.30;;
43527;SDS011;52359;42.658;23.320;2023-06-22T09:39:33;9.88;;;8.00;;
43527;SDS011;52359;42.658;23.320;2023-06-22T09:41:59;9.95;;;8.48;;
43527;SDS011;52359;42.658;23.320;2023-06-22T09:44:27;9.43;;;8.05;;
43527;SDS011;52359;42.658;23.320;2023-06-22T09:46:53;9.57;;;8.55;;
43527;SDS011;52359;42.658;23.320;2023-06-22T09:49:19;8.38;;;7.55;;
43527;SDS011;52359;42.658;23.320;2023-06-22T09:51:45;14.18;;;7.85;;
43527;SDS011;52359;42.658;23.320;2023-06-22T09:54:11;10.07;;;7.28;;
43527;SDS011;52359;42.658;23.320;2023-06-22T09:56:37;8.18;;;7.38;;
43527;SDS011;52359;42.658;23.320;2023-06-22T09:59:03;12.07;;;7.90;;
43527;SDS011;52359;42.658;23.320;2023-06-22T10:01:29;8.93;;;7.38;;
43527;SDS011;52359;42.658;23.320;2023-06-22T10:03:55;8.05;;;7.32;;
43527;SDS011;52359;42.658;23.320;2023-06-22T10:06:21;8.93;;;8.02;;
43527;SDS011;52359;42.658;23.320;2023-06-22T10:08:48;8.43;;;7.40;;
43527;SDS011;52359;42.658;23.320;2023-06-22T10:11:15;11.20;;;7.88;;
43527;SDS011;52359;42.658;23.320;2023-06-22T10:13:41;15.60;;;8.05;;
43527;SDS011;52359;42.658;23.320;2023-06-22T10:16:07;16.27;;;8.25;;
43527;SDS011;52359;42.658;23.320;2023-06-22T10:18:33;16.08;;;8.13;;
43527;SDS011;52359;42.658;23.320;2023-06-22T10:20:59;9.23;;;8.32;;
43527;SDS011;52359;42.658;23.320;2023-06-22T10:23:26;19.27;;;8.80;;
43527;SDS011;52359;42.658;23.320;2023-06-22T10:25:52;14.25;;;8.63;;
43527;SDS011;52359;42.658;23.320;2023-06-22T10:28:18;8.68;;;7.85;;
43527;SDS011;52359;42.658;23.320;2023-06-22T10:30:44;10.23;;;7.82;;
43527;SDS011;52359;42.658;23.320;2023-06-22T10:33:10;12.43;;;8.15;;
43527;SDS011;52359;42.658;23.320;2023-06-22T10:35:36;9.35;;;7.10;;
43527;SDS011;52359;42.658;23.320;2023-06-22T10:38:03;9.10;;;7.60;;
43527;SDS011;52359;42.658;23.320;2023-06-22T10:40:29;10.10;;;7.72;;
43527;SDS011;52359;42.658;23.320;2023-06-22T10:42:55;15.23;;;8.02;;
43527;SDS011;52359;42.658;23.320;2023-06-22T10:45:22;9.63;;;8.63;;
43527;SDS011;52359;42.658;23.320;2023-06-22T10:47:48;9.07;;;8.10;;
43527;SDS011;52359;42.658;23.320;2023-06-22T10:50:14;9.63;;;8.70;;
43527;SDS011;52359;42.658;23.320;2023-06-22T10:52:39;10.57;;;8.60;;
43527;SDS011;52359;42.658;23.320;2023-06-22T10:55:06;9.63;;;7.82;;
43527;SDS011;52359;42.658;23.320;2023-06-22T10:57:33;10.25;;;8.27;;
43527;SDS011;52359;42.658;23.320;2023-06-22T10:59:59;9.45;;;8.05;;
43527;SDS011;52359;42.658;23.320;2023-06-22T11:02:24;15.85;;;8.68;;
43527;SDS011;52359;42.658;23.320;2023-06-22T11:04:53;9.55;;;8.38;;
43527;SDS011;52359;42.658;23.320;2023-06-22T11:07:18;9.55;;;8.55;;
43527;SDS011;52359;42.658;23.320;2023-06-22T11:09:44;13.65;;;7.93;;
43527;SDS011;52359;42.658;23.320;2023-06-22T11:12:10;9.48;;;8.02;;
43527;SDS011;52359;42.658;23.320;2023-06-22T11:14:35;11.77;;;7.90;;
43527;SDS011;52359;42.658;23.320;2023-06-22T11:17:01;9.50;;;8.35;;
43527;SDS011;52359;42.658;23.320;2023-06-22T11:19:26;12.40;;;8.35;;
43527;SDS011;52359;42.658;23.320;2023-06-22T11:21:52;14.10;;;9.90;;
43527;SDS011;52359;42.658;23.320;2023-06-22T11:24:18;9.45;;;8.40;;
43527;SDS011;52359;42.658;23.320;2023-06-22T11:26:44;10.95;;;8.55;;
43527;SDS011;52359;42.658;23.320;2023-06-22T11:29:10;10.90;;;8.70;;
43527;SDS011;52359;42.658;23.320;2023-06-22T11:31:35;9.85;;;8.18;;
43527;SDS011;52359;42.658;23.320;2023-06-22T11:34:01;9.25;;;8.35;;
43527;SDS011;52359;42.658;23.320;2023-06-22T11:36:28;10.52;;;8.00;;
43527;SDS011;52359;42.658;23.320;2023-06-22T11:38:54;12.05;;;7.80;;
43527;SDS011;52359;42.658;23.320;2023-06-22T11:41:20;12.00;;;8.77;;
43527;SDS011;52359;42.658;23.320;2023-06-22T11:43:45;8.93;;;8.13;;
43527;SDS011;52359;42.658;23.320;2023-06-22T11:46:11;16.08;;;8.10;;
43527;SDS011;52359;42.658;23.320;2023-06-22T11:48:37;12.02;;;8.48;;
43527;SDS011;52359;42.658;23.320;2023-06-22T11:51:03;12.30;;;8.15;;
43527;SDS011;52359;42.658;23.320;2023-06-22T11:53:29;9.27;;;8.38;;
43527;SDS011;52359;42.658;23.320;2023-06-22T11:55:55;11.00;;;8.75;;
43527;SDS011;52359;42.658;23.320;2023-06-22T11:58:21;10.40;;;8.82;;
43527;SDS011;52359;42.658;23.320;2023-06-22T12:00:47;10.48;;;9.50;;
43527;SDS011;52359;42.658;23.320;2023-06-22T12:03:13;12.48;;;8.40;;
43527;SDS011;52359;42.658;23.320;2023-06-22T12:05:39;10.45;;;8.68;;
43527;SDS011;52359;42.658;23.320;2023-06-22T12:08:06;12.43;;;9.13;;
43527;SDS011;52359;42.658;23.320;2023-06-22T12:10:31;16.10;;;9.07;;
43527;SDS011;52359;42.658;23.320;2023-06-22T12:12:57;11.30;;;9.30;;
43527;SDS011;52359;42.658;23.320;2023-06-22T12:15:24;12.85;;;9.57;;
43527;SDS011;52359;42.658;23.320;2023-06-22T12:17:50;14.52;;;10.20;;
43527;SDS011;52359;42.658;23.320;2023-06-22T12:20:16;10.32;;;8.95;;
43527;SDS011;52359;42.658;23.320;2023-06-22T12:22:42;11.63;;;10.13;;
43527;SDS011;52359;42.658;23.320;2023-06-22T12:25:08;15.48;;;9.40;;
43527;SDS011;52359;42.658;23.320;2023-06-22T12:27:34;16.63;;;9.65;;
43527;SDS011;52359;42.658;23.320;2023-06-22T12:30:00;12.48;;;9.70;;
43527;SDS011;52359;42.658;23.320;2023-06-22T12:32:27;12.77;;;11.10;;
43527;SDS011;52359;42.658;23.320;2023-06-22T12:34:53;11.80;;;9.90;;
43527;SDS011;52359;42.658;23.320;2023-06-22T12:37:25;18.98;;;9.15;;
43527;SDS011;52359;42.658;23.320;2023-06-22T12:39:51;18.95;;;10.15;;
43527;SDS011;52359;42.658;23.320;2023-06-22T12:42:17;19.13;;;9.30;;
43527;SDS011;52359;42.658;23.320;2023-06-22T12:44:43;10.30;;;7.57;;
43527;SDS011;52359;42.658;23.320;2023-06-22T12:47:09;23.00;;;9.73;;
43527;SDS011;52359;42.658;23.320;2023-06-22T12:49:36;14.13;;;8.43;;
43527;SDS011;52359;42.658;23.320;2023-06-22T12:52:02;14.98;;;10.20;;
43527;SDS011;52359;42.658;23.320;2023-06-22T12:54:28;9.75;;;8.75;;
43527;SDS011;52359;42.658;23.320;2023-06-22T12:56:55;10.00;;;8.70;;
43527;SDS011;52359;42.658;23.320;2023-06-22T12:59:21;15.50;;;9.40;;
43527;SDS011;52359;42.658;23.320;2023-06-22T13:01:47;14.27;;;8.35;;
43527;SDS011;52359;42.658;23.320;2023-06-22T13:04:13;17.33;;;10.18;;
43527;SDS011;52359;42.658;23.320;2023-06-22T13:06:40;11.00;;;9.23;;
43527;SDS011;52359;42.658;23.320;2023-06-22T13:09:06;14.95;;;8.85;;
43527;SDS011;52359;42.658;23.320;2023-06-22T13:11:33;20.35;;;9.10;;
43527;SDS011;52359;42.658;23.320;2023-06-22T13:13:59;12.45;;;7.57;;
43527;SDS011;52359;42.658;23.320;2023-06-22T13:16:25;22.42;;;9.70;;
43527;SDS011;52359;42.658;23.320;2023-06-22T13:18:51;12.05;;;8.75;;
43527;SDS011;52359;42.658;23.320;2023-06-22T13:21:17;18.90;;;9.73;;
43527;SDS011;52359;42.658;23.320;2023-06-22T13:23:43;13.60;;;9.20;;
43527;SDS011;52359;42.658;23.320;2023-06-22T13:26:09;11.07;;;9.00;;
43527;SDS011;52359;42.658;23.320;2023-06-22T13:28:35;13.40;;;8.80;;
43527;SDS011;52359;42.658;23.320;2023-06-22T13:31:01;10.95;;;9.00;;
43527;SDS011;52359;42.658;23.320;2023-06-22T13:33:27;14.75;;;8.95;;
43527;SDS011;52359;42.658;23.320;2023-06-22T13:35:53;11.25;;;8.75;;
43527;SDS011;52359;42.658;23.320;2023-06-22T13:38:19;13.65;;;8.90;;
43527;SDS011;52359;42.658;23.320;2023-06-22T13:40:47;12.02;;;8.93;;
43527;SDS011;52359;42.658;23.320;2023-06-22T13:43:13;10.90;;;8.63;;
43527;SDS011;52359;42.658;23.320;2023-06-22T13:45:40;11.82;;;8.43;;
43527;SDS011;52359;42.658;23.320;2023-06-22T13:48:06;11.10;;;8.57;;
43527;SDS011;52359;42.658;23.320;2023-06-22T13:50:32;15.00;;;9.68;;
43527;SDS011;52359;42.658;23.320;2023-06-22T13:52:58;10.25;;;8.80;;
43527;SDS011;52359;42.658;23.320;2023-06-22T13:55:24;11.90;;;9.50;;
43527;SDS011;52359;42.658;23.320;2023-06-22T13:57:51;19.17;;;10.73;;
43527;SDS011;52359;42.658;23.320;2023-06-22T14:00:17;12.55;;;9.32;;
43527;SDS011;52359;42.658;23.320;2023-06-22T14:02:43;11.93;;;9.73;;
43527;SDS011;52359;42.658;23.320;2023-06-22T14:05:09;10.68;;;9.63;;
43527;SDS011;52359;42.658;23.320;2023-06-22T14:07:36;15.43;;;10.10;;
43527;SDS011;52359;42.658;23.320;2023-06-22T14:10:05;15.90;;;10.55;;
43527;SDS011;52359;42.658;23.320;2023-06-22T14:12:31;18.40;;;10.65;;
43527;SDS011;52359;42.658;23.320;2023-06-22T14:14:57;20.27;;;11.30;;
43527;SDS011;52359;42.658;23.320;2023-06-22T14:17:23;18.98;;;10.15;;
43527;SDS011;52359;42.658;23.320;2023-06-22T14:19:51;16.42;;;10.75;;
43527;SDS011;52359;42.658;23.320;2023-06-22T14:22:20;16.75;;;10.45;;
43527;SDS011;52359;42.658;23.320;2023-06-22T14:24:47;18.48;;;11.13;;
43527;SDS011;52359;42.658;23.320;2023-06-22T14:27:13;18.42;;;10.55;;
43527;SDS011;52359;42.658;23.320;2023-06-22T14:29:39;16.10;;;11.45;;
43527;SDS011;52359;42.658;23.320;2023-06-22T14:32:06;22.30;;;11.40;;
43527;SDS011;52359;42.658;23.320;2023-06-22T14:34:32;16.00;;;10.50;;
43527;SDS011;52359;42.658;23.320;2023-06-22T14:37:00;15.85;;;9.57;;
43527;SDS011;52359;42.658;23.320;2023-06-22T14:39:26;13.60;;;10.52;;
43527;SDS011;52359;42.658;23.320;2023-06-22T14:41:52;18.35;;;10.38;;
43527;SDS011;52359;42.658;23.320;2023-06-22T14:44:18;19.70;;;10.15;;
43527;SDS011;52359;42.658;23.320;2023-06-22T14:46:44;15.57;;;11.30;;
43527;SDS011;52359;42.658;23.320;2023-06-22T14:49:10;19.70;;;11.80;;
43527;SDS011;52359;42.658;23.320;2023-06-22T14:51:36;11.88;;;8.88;;
43527;SDS011;52359;42.658;23.320;2023-06-22T14:54:02;13.93;;;8.45;;
43527;SDS011;52359;42.658;23.320;2023-06-22T14:56:29;15.50;;;8.40;;
43527;SDS011;52359;42.658;23.320;2023-06-22T14:58:55;14.45;;;8.77;;
43527;SDS011;52359;42.658;23.320;2023-06-22T15:01:21;13.60;;;9.10;;
43527;SDS011;52359;42.658;23.320;2023-06-22T15:03:47;11.90;;;8.77;;
43527;SDS011;52359;42.658;23.320;2023-06-22T15:06:13;19.65;;;8.35;;
43527;SDS011;52359;42.658;23.320;2023-06-22T15:08:40;19.73;;;9.32;;
43527;SDS011;52359;42.658;23.320;2023-06-22T15:11:06;12.68;;;8.50;;
43527;SDS011;52359;42.658;23.320;2023-06-22T15:13:32;12.88;;;7.82;;
43527;SDS011;52359;42.658;23.320;2023-06-22T15:16:01;13.18;;;8.18;;
43527;SDS011;52359;42.658;23.320;2023-06-22T15:18:31;14.25;;;8.65;;
43527;SDS011;52359;42.658;23.320;2023-06-22T15:21:00;12.45;;;8.88;;
43527;SDS011;52359;42.658;23.320;2023-06-22T15:23:26;12.75;;;8.35;;
43527;SDS011;52359;42.658;23.320;2023-06-22T15:25:54;12.30;;;7.97;;
43527;SDS011;52359;42.658;23.320;2023-06-22T15:28:20;19.90;;;8.60;;
43527;SDS011;52359;42.658;23.320;2023-06-22T15:30:46;14.52;;;8.32;;
43527;SDS011;52359;42.658;23.320;2023-06-22T15:33:13;16.77;;;8.63;;
43527;SDS011;52359;42.658;23.320;2023-06-22T15:35:39;11.30;;;8.73;;
43527;SDS011;52359;42.658;23.320;2023-06-22T15:38:05;14.80;;;8.38;;
43527;SDS011;52359;42.658;23.320;2023-06-22T15:40:31;17.98;;;9.55;;
43527;SDS011;52359;42.658;23.320;2023-06-22T15:42:57;11.75;;;8.25;;
43527;SDS011;52359;42.658;23.320;2023-06-22T15:45:24;16.02;;;8.52;;
43527;SDS011;52359;42.658;23.320;2023-06-22T15:47:50;18.92;;;10.18;;
43527;SDS011;52359;42.658;23.320;2023-06-22T15:50:16;10.73;;;8.68;;
43527;SDS011;52359;42.658;23.320;2023-06-22T15:52:42;12.73;;;8.00;;
43527;SDS011;52359;42.658;23.320;2023-06-22T15:55:13;11.93;;;7.90;;
43527;SDS011;52359;42.658;23.320;2023-06-22T15:57:39;12.90;;;7.80;;
43527;SDS011;52359;42.658;23.320;2023-06-22T16:00:05;19.23;;;9.80;;
43527;SDS011;52359;42.658;23.320;2023-06-22T16:02:32;15.02;;;9.13;;
43527;SDS011;52359;42.658;23.320;2023-06-22T16:04:58;13.13;;;8.55;;
43527;SDS011;52359;42.658;23.320;2023-06-22T16:07:26;16.55;;;8.63;;
43527;SDS011;52359;42.658;23.320;2023-06-22T16:09:52;11.50;;;8.32;;
43527;SDS011;52359;42.658;23.320;2023-06-22T16:12:18;10.20;;;8.88;;
43527;SDS011;52359;42.658;23.320;2023-06-22T16:14:44;12.77;;;8.38;;
43527;SDS011;52359;42.658;23.320;2023-06-22T16:17:10;9.63;;;8.63;;
43527;SDS011;52359;42.658;23.320;2023-06-22T16:19:36;13.48;;;8.25;;
43527;SDS011;52359;42.658;23.320;2023-06-22T16:22:02;12.00;;;9.85;;
43527;SDS011;52359;42.658;23.320;2023-06-22T16:24:28;16.63;;;9.00;;
43527;SDS011;52359;42.658;23.320;2023-06-22T16:26:54;12.02;;;8.30;;
43527;SDS011;52359;42.658;23.320;2023-06-22T16:29:20;10.32;;;8.38;;
43527;SDS011;52359;42.658;23.320;2023-06-22T16:31:46;10.30;;;8.35;;
43527;SDS011;52359;42.658;23.320;2023-06-22T16:34:12;18.73;;;9.23;;
43527;SDS011;52359;42.658;23.320;2023-06-22T16:36:39;16.48;;;9.15;;
43527;SDS011;52359;42.658;23.320;2023-06-22T16:39:05;19.13;;;9.27;;
43527;SDS011;52359;42.658;23.320;2023-06-22T16:41:31;19.52;;;8.85;;
43527;SDS011;52359;42.658;23.320;2023-06-22T16:43:57;13.38;;;9.30;;
43527;SDS011;52359;42.658;23.320;2023-06-22T16:46:29;13.23;;;9.43;;
43527;SDS011;52359;42.658;23.320;2023-06-22T16:48:56;16.38;;;9.25;;
43527;SDS011;52359;42.658;23.320;2023-06-22T16:51:22;16.25;;;9.00;;
43527;SDS011;52359;42.658;23.320;2023-06-22T16:53:53;13.02;;;9.07;;
43527;SDS011;52359;42.658;23.320;2023-06-22T16:56:23;17.98;;;9.27;;
43527;SDS011;52359;42.658;23.320;2023-06-22T16:58:51;18.48;;;9.55;;
43527;SDS011;52359;42.658;23.320;2023-06-22T17:01:18;22.23;;;9.70;;
43527;SDS011;52359;42.658;23.320;2023-06-22T17:03:44;14.43;;;9.15;;
43527;SDS011;52359;42.658;23.320;2023-06-22T17:06:13;18.75;;;9.50;;
43527;SDS011;52359;42.658;23.320;2023-06-22T17:08:40;18.08;;;10.65;;
43527;SDS011;52359;42.658;23.320;2023-06-22T17:11:07;23.77;;;10.82;;
43527;SDS011;52359;42.658;23.320;2023-06-22T17:13:36;15.45;;;9.68;;
43527;SDS011;52359;42.658;23.320;2023-06-22T17:16:03;20.83;;;9.98;;
43527;SDS011;52359;42.658;23.320;2023-06-22T17:18:29;21.15;;;10.45;;
43527;SDS011;52359;42.658;23.320;2023-06-22T17:20:58;21.40;;;10.68;;
43527;SDS011;52359;42.658;23.320;2023-06-22T17:23:23;20.42;;;9.82;;
43527;SDS011;52359;42.658;23.320;2023-06-22T17:25:50;24.33;;;10.63;;
43527;SDS011;52359;42.658;23.320;2023-06-22T17:28:18;23.98;;;10.07;;
43527;SDS011;52359;42.658;23.320;2023-06-22T17:30:44;21.50;;;9.57;;
43527;SDS011;52359;42.658;23.320;2023-06-22T17:33:12;26.77;;;11.15;;
43527;SDS011;52359;42.658;23.320;2023-06-22T17:35:46;20.65;;;10.15;;
43527;SDS011;52359;42.658;23.320;2023-06-22T17:38:20;26.00;;;10.45;;
43527;SDS011;52359;42.658;23.320;2023-06-22T17:40:50;28.23;;;10.82;;
43527;SDS011;52359;42.658;23.320;2023-06-22T17:43:18;19.48;;;10.60;;
43527;SDS011;52359;42.658;23.320;2023-06-22T17:45:45;26.42;;;11.35;;
43527;SDS011;52359;42.658;23.320;2023-06-22T17:48:12;21.65;;;11.05;;
43527;SDS011;52359;42.658;23.320;2023-06-22T17:50:40;27.95;;;10.88;;
43527;SDS011;52359;42.658;23.320;2023-06-22T17:53:10;23.42;;;11.57;;
43527;SDS011;52359;42.658;23.320;2023-06-22T17:55:36;20.30;;;11.45;;
43527;SDS011;52359;42.658;23.320;2023-06-22T17:58:02;21.60;;;9.90;;
43527;SDS011;52359;42.658;23.320;2023-06-22T18:00:30;28.48;;;11.63;;
43527;SDS011;52359;42.658;23.320;2023-06-22T18:02:55;34.42;;;11.40;;
43527;SDS011;52359;42.658;23.320;2023-06-22T18:05:31;27.40;;;11.77;;
43527;SDS011;52359;42.658;23.320;2023-06-22T18:08:02;18.40;;;10.98;;
43527;SDS011;52359;42.658;23.320;2023-06-22T18:10:30;18.48;;;11.30;;
43527;SDS011;52359;42.658;23.320;2023-06-22T18:12:58;26.98;;;11.25;;
43527;SDS011;52359;42.658;23.320;2023-06-22T18:15:24;26.45;;;11.05;;
43527;SDS011;52359;42.658;23.320;2023-06-22T18:17:51;21.35;;;10.63;;
43527;SDS011;52359;42.658;23.320;2023-06-22T18:20:17;24.33;;;10.85;;
43527;SDS011;52359;42.658;23.320;2023-06-22T18:22:45;24.40;;;10.30;;
43527;SDS011;52359;42.658;23.320;2023-06-22T18:25:14;26.20;;;9.88;;
43527;SDS011;52359;42.658;23.320;2023-06-22T18:27:45;21.67;;;11.30;;
43527;SDS011;52359;42.658;23.320;2023-06-22T18:30:11;21.58;;;11.07;;
43527;SDS011;52359;42.658;23.320;2023-06-22T18:32:39;13.30;;;10.95;;
43527;SDS011;52359;42.658;23.320;2023-06-22T18:35:05;25.35;;;10.63;;
43527;SDS011;52359;42.658;23.320;2023-06-22T18:37:32;22.35;;;11.68;;
43527;SDS011;52359;42.658;23.320;2023-06-22T18:39:59;25.60;;;10.68;;
43527;SDS011;52359;42.658;23.320;2023-06-22T18:42:25;25.10;;;12.90;;
43527;SDS011;52359;42.658;23.320;2023-06-22T18:44:53;26.20;;;11.95;;
43527;SDS011;52359;42.658;23.320;2023-06-22T18:47:29;25.48;;;11.40;;
43527;SDS011;52359;42.658;23.320;2023-06-22T18:50:08;33.28;;;11.40;;
43527;SDS011;52359;42.658;23.320;2023-06-22T18:52:35;29.95;;;13.00;;
43527;SDS011;52359;42.658;23.320;2023-06-22T18:55:02;19.52;;;12.18;;
43527;SDS011;52359;42.658;23.320;2023-06-22T18:57:32;22.40;;;11.57;;
43527;SDS011;52359;42.658;23.320;2023-06-22T19:00:03;28.95;;;12.18;;
43527;SDS011;52359;42.658;23.320;2023-06-22T19:10:22;29.83;;;12.63;;
43527;SDS011;52359;42.658;23.320;2023-06-22T19:13:18;29.77;;;12.48;;
43527;SDS011;52359;42.658;23.320;2023-06-22T19:15:53;25.13;;;12.95;;
43527;SDS011;52359;42.658;23.320;2023-06-22T19:18:24;26.50;;;14.73;;
43527;SDS011;52359;42.658;23.320;2023-06-22T19:20:59;32.08;;;15.85;;
43527;SDS011;52359;42.658;23.320;2023-06-22T19:25:53;25.52;;;16.65;;
43527;SDS011;52359;42.658;23.320;2023-06-22T19:28:26;39.42;;;16.08;;
43527;SDS011;52359;42.658;23.320;2023-06-22T19:30:53;39.60;;;17.48;;
43527;SDS011;52359;42.658;23.320;2023-06-22T19:33:20;34.65;;;14.95;;
43527;SDS011;52359;42.658;23.320;2023-06-22T19:35:46;31.05;;;15.55;;
43527;SDS011;52359;42.658;23.320;2023-06-22T19:38:16;29.27;;;14.50;;
43527;SDS011;52359;42.658;23.320;2023-06-22T19:40:43;32.00;;;14.98;;
43527;SDS011;52359;42.658;23.320;2023-06-22T19:43:09;25.15;;;14.45;;
43527;SDS011;52359;42.658;23.320;2023-06-22T19:45:38;22.95;;;13.40;;
43527;SDS011;52359;42.658;23.320;2023-06-22T19:48:06;18.65;;;11.45;;
43527;SDS011;52359;42.658;23.320;2023-06-22T19:50:33;18.42;;;12.05;;
43527;SDS011;52359;42.658;23.320;2023-06-22T19:53:13;16.80;;;11.90;;
43527;SDS011;52359;42.658;23.320;2023-06-22T19:55:40;26.05;;;11.68;;
43527;SDS011;52359;42.658;23.320;2023-06-22T19:58:08;19.50;;;12.02;;
43527;SDS011;52359;42.658;23.320;2023-06-22T20:00:34;20.45;;;11.40;;
43527;SDS011;52359;42.658;23.320;2023-06-22T20:03:00;19.20;;;11.40;;
43527;SDS011;52359;42.658;23.320;2023-06-22T20:05:27;22.15;;;13.00;;
43527;SDS011;52359;42.658;23.320;2023-06-22T20:07:53;24.83;;;13.68;;
43527;SDS011;52359;42.658;23.320;2023-06-22T20:10:19;21.95;;;13.48;;
43527;SDS011;52359;42.658;23.320;2023-06-22T20:12:49;25.52;;;12.73;;
43527;SDS011;52359;42.658;23.320;2023-06-22T20:17:46;24.55;;;14.25;;
43527;SDS011;52359;42.658;23.320;2023-06-22T20:20:18;30.27;;;13.25;;
43527;SDS011;52359;42.658;23.320;2023-06-22T20:22:45;26.88;;;14.77;;
43527;SDS011;52359;42.658;23.320;2023-06-22T20:25:11;27.20;;;14.88;;
43527;SDS011;52359;42.658;23.320;2023-06-22T20:27:41;30.65;;;13.75;;
43527;SDS011;52359;42.658;23.320;2023-06-22T20:30:17;29.10;;;12.73;;
43527;SDS011;52359;42.658;23.320;2023-06-22T20:32:47;24.02;;;13.27;;
43527;SDS011;52359;42.658;23.320;2023-06-22T20:35:14;22.00;;;12.43;;
43527;SDS011;52359;42.658;23.320;2023-06-22T20:37:40;25.75;;;13.27;;
43527;SDS011;52359;42.658;23.320;2023-06-22T20:40:07;21.45;;;11.95;;
43527;SDS011;52359;42.658;23.320;2023-06-22T20:42:37;18.52;;;12.07;;
43527;SDS011;52359;42.658;23.320;2023-06-22T20:45:06;19.73;;;12.55;;
43527;SDS011;52359;42.658;23.320;2023-06-22T20:47:32;22.45;;;12.90;;
43527;SDS011;52359;42.658;23.320;2023-06-22T20:49:58;23.77;;;11.77;;
43527;SDS011;52359;42.658;23.320;2023-06-22T20:52:25;25.52;;;11.85;;
43527;SDS011;52359;42.658;23.320;2023-06-22T20:54:51;30.00;;;13.00;;
43527;SDS011;52359;42.658;23.320;2023-06-22T20:57:18;26.27;;;11.95;;
43527;SDS011;52359;42.658;23.320;2023-06-22T20:59:44;21.30;;;12.15;;
43527;SDS011;52359;42.658;23.320;2023-06-22T21:02:10;25.80;;;11.60;;
43527;SDS011;52359;42.658;23.320;2023-06-22T21:04:36;24.60;;;11.77;;
43527;SDS011;52359;42.658;23.320;2023-06-22T21:07:04;24.55;;;12.38;;